Time;durP1;ratioP1;P1;durP2;ratioP2;P2;SDS_P1;SDS_P2;PMS_P1;PMS_P2;Temp;Humidity;BMP_temperature;BMP_pressure;BME280_temperature;BME280_humidity;BME280_pressure;Samples;Min_cycle;Max_cycle;Signal;HPM_P1;HPM_P2
2024/01/01 00:00:53;;;;;;;;;;;;;;;11.86;51.71;99701.88;4918319;28;98465;-65
2024/01/01 00:03:19;;;;;;;;;;;;;;;11.85;51.75;99695.66;4920140;28;98021;-64
2024/01/01 00:05:45;;;;;;;;;;;;;;;11.85;51.87;99703.78;4935924;28;98024;-64
2024/01/01 00:08:11;;;;;;;;;;;;;;;11.84;51.77;99699.47;4933999;28;98091;-63
2024/01/01 00:10:38;;;;;;;;;;;;;;;11.84;51.68;99704.06;4923180;28;98811;-64
2024/01/01 00:13:04;;;;;;;;;;;;;;;11.86;51.74;99704.56;4951347;28;124848;-65
2024/01/01 00:15:30;;;;;;;;;;;;;;;11.85;51.93;99701.06;4920938;28;100350;-63
2024/01/01 00:17:56;;;;;;;;;;;;;;;11.85;51.64;99702.97;4923491;28;97960;-63
2024/01/01 00:20:22;;;;;;;;;;;;;;;11.86;51.63;99704.56;4935772;28;98272;-64
2024/01/01 00:22:49;;;;;;;;;;;;;;;11.83;51.72;99703.28;4920347;28;127182;-63
2024/01/01 00:25:15;;;;;;;;;;;;;;;11.85;51.67;99703.78;4920813;28;98129;-63
2024/01/01 00:27:41;;;;;;;;;;;;;;;11.84;51.87;99696.78;4923600;28;98076;-63
2024/01/01 00:30:08;;;;;;;;;;;;;;;11.85;51.86;99695.66;4928519;28;99093;-63
2024/01/01 00:32:37;;;;;;;;;;;;;;;11.85;51.92;99697.56;4938444;28;113173;-64
2024/01/01 00:35:04;;;;;;;;;;;;;;;11.85;51.89;99689.47;4939413;28;99427;-63
2024/01/01 00:37:30;;;;;;;;;;;;;;;11.85;51.83;99711.06;4941951;28;98840;-63
2024/01/01 00:39:56;;;;;;;;;;;;;;;11.84;51.70;99710.28;4941560;28;99311;-64
2024/01/01 00:42:22;;;;;;;;;;;;;;;11.85;51.89;99713.78;4926121;28;99401;-63
2024/01/01 00:44:48;;;;;;;;;;;;;;;11.84;51.65;99712.19;4924496;28;98241;-63
2024/01/01 00:47:14;;;;;;;;;;;;;;;11.85;51.59;99716.47;4927237;28;98565;-63
2024/01/01 00:49:40;;;;;;;;;;;;;;;11.85;51.80;99711.06;4941393;28;99756;-63
2024/01/01 00:52:07;;;;;;;;;;;;;;;11.84;51.85;99695.97;4924057;28;98161;-63
2024/01/01 00:54:33;;;;;;;;;;;;;;;11.84;51.70;99694.06;4923893;28;99532;-63
2024/01/01 00:56:59;;;;;;;;;;;;;;;11.84;51.77;99694.06;4922261;28;98415;-63
2024/01/01 00:59:26;;;;;;;;;;;;;;;11.84;51.73;99687.88;4941462;28;98232;-62
2024/01/01 01:01:53;;;;;;;;;;;;;;;11.84;51.66;99693.28;4924819;28;98086;-63
2024/01/01 01:04:19;;;;;;;;;;;;;;;11.84;51.87;99699.47;4923878;28;98057;-65
2024/01/01 01:06:45;;;;;;;;;;;;;;;11.84;51.81;99699.47;4925183;28;117743;-63
2024/01/01 01:09:12;;;;;;;;;;;;;;;11.83;51.66;99689.78;4952875;28;98911;-63
2024/01/01 01:11:40;;;;;;;;;;;;;;;11.85;51.89;99694.88;4938515;28;98340;-63
2024/01/01 01:14:06;;;;;;;;;;;;;;;11.84;51.85;99691.38;4953231;28;99264;-64
2024/01/01 01:16:32;;;;;;;;;;;;;;;11.83;51.94;99687.06;4946881;27;98283;-64
2024/01/01 01:18:59;;;;;;;;;;;;;;;11.83;51.74;99689.78;4920978;28;116126;-64
2024/01/01 01:21:25;;;;;;;;;;;;;;;11.84;51.86;99690.56;4935900;28;100699;-63
2024/01/01 01:23:52;;;;;;;;;;;;;;;11.83;51.73;99687.06;4941544;28;98133;-63
2024/01/01 01:26:20;;;;;;;;;;;;;;;11.83;51.81;99678.97;4935273;28;99642;-64
2024/01/01 01:28:46;;;;;;;;;;;;;;;11.83;51.69;99680.81;4938361;28;99844;-64
2024/01/01 01:31:12;;;;;;;;;;;;;;;11.83;51.55;99684.38;4954206;28;127421;-65
2024/01/01 01:33:38;;;;;;;;;;;;;;;11.83;51.88;99683.53;4921549;28;106692;-63
2024/01/01 01:36:04;;;;;;;;;;;;;;;11.82;51.87;99688.13;4921559;28;98209;-64
2024/01/01 01:38:31;;;;;;;;;;;;;;;11.82;51.71;99685.41;4941383;28;103406;-65
2024/01/01 01:40:58;;;;;;;;;;;;;;;11.83;51.74;99686.22;4926482;28;97912;-64
2024/01/01 01:43:28;;;;;;;;;;;;;;;11.82;51.69;99690.81;4933716;28;98925;-64
2024/01/01 01:45:54;;;;;;;;;;;;;;;11.83;51.21;99692.47;4937124;28;98305;-64
2024/01/01 01:48:21;;;;;;;;;;;;;;;11.82;51.92;99693.53;4940834;28;98143;-63
2024/01/01 01:50:48;;;;;;;;;;;;;;;11.82;51.82;99690.03;4925921;28;98416;-65
2024/01/01 01:53:14;;;;;;;;;;;;;;;11.82;51.74;99684.63;4922320;28;99608;-65
2024/01/01 01:55:42;;;;;;;;;;;;;;;11.80;51.74;99688.44;4933949;28;98353;-63
2024/01/01 01:58:08;;;;;;;;;;;;;;;11.80;51.75;99674.94;4919677;28;99865;-64
2024/01/01 02:00:34;;;;;;;;;;;;;;;11.79;51.75;99670.63;4920841;28;111614;-63
2024/01/01 02:03:00;;;;;;;;;;;;;;;11.79;51.60;99681.44;4925185;28;97901;-63
2024/01/01 02:05:29;;;;;;;;;;;;;;;11.80;51.82;99676.81;4939110;28;120555;-65
2024/01/01 02:07:55;;;;;;;;;;;;;;;11.79;51.63;99680.63;4953892;28;128464;-66
2024/01/01 02:10:21;;;;;;;;;;;;;;;11.79;51.67;99681.44;4938598;28;117953;-65
2024/01/01 02:12:47;;;;;;;;;;;;;;;11.79;51.81;99678.72;4926874;28;128502;-63
2024/01/01 02:15:13;;;;;;;;;;;;;;;11.79;51.71;99677.94;4940248;28;98287;-64
2024/01/01 02:17:39;;;;;;;;;;;;;;;11.79;51.68;99673.34;4923739;28;98464;-64
2024/01/01 02:20:06;;;;;;;;;;;;;;;11.80;51.70;99663.31;4920396;28;98415;-63
2024/01/01 02:22:39;;;;;;;;;;;;;;;11.79;51.47;99662.53;4937650;28;98508;-63
2024/01/01 02:25:09;;;;;;;;;;;;;;;11.80;51.90;99663.31;4924143;28;100116;-65
2024/01/01 02:27:38;;;;;;;;;;;;;;;11.80;51.91;99663.31;4923802;28;98584;-63
2024/01/01 02:30:05;;;;;;;;;;;;;;;11.79;51.62;99669.84;4921461;28;100257;-63
2024/01/01 02:32:31;;;;;;;;;;;;;;;11.80;51.78;99672.22;4940157;28;99639;-64
2024/01/01 02:34:58;;;;;;;;;;;;;;;11.79;51.76;99657.13;4923625;28;115751;-64
2024/01/01 02:37:23;;;;;;;;;;;;;;;11.80;51.87;99663.31;4936760;28;98406;-63
2024/01/01 02:39:50;;;;;;;;;;;;;;;11.80;51.85;99672.22;4923058;28;98246;-65
2024/01/01 02:42:15;;;;;;;;;;;;;;;11.80;51.88;99677.63;4936838;28;126102;-63
2024/01/01 02:44:42;;;;;;;;;;;;;;;11.80;51.61;99677.63;4959171;28;98556;-63
2024/01/01 02:47:08;;;;;;;;;;;;;;;11.82;52.07;99673.81;4925179;28;98387;-64
2024/01/01 02:49:34;;;;;;;;;;;;;;;11.82;51.61;99669.22;4937363;28;128754;-63
2024/01/01 02:52:00;;;;;;;;;;;;;;;11.83;51.77;99675.41;4925644;28;98128;-63
2024/01/01 02:54:26;;;;;;;;;;;;;;;11.83;51.68;99684.38;4919323;28;98503;-63
2024/01/01 02:56:52;;;;;;;;;;;;;;;11.82;51.75;99682.72;4921923;28;98192;-64
2024/01/01 02:59:18;;;;;;;;;;;;;;;11.84;51.68;99687.88;4922333;28;129152;-63
2024/01/01 03:01:44;;;;;;;;;;;;;;;11.84;51.70;99687.88;4939104;28;98247;-64
2024/01/01 03:04:10;;;;;;;;;;;;;;;11.83;51.55;99678.97;4921429;28;101815;-63
2024/01/01 03:06:36;;;;;;;;;;;;;;;11.85;51.59;99686.78;4938142;28;98441;-64
2024/01/01 03:09:03;;;;;;;;;;;;;;;11.84;51.70;99685.19;4938460;28;127105;-63
2024/01/01 03:11:29;;;;;;;;;;;;;;;11.84;51.85;99687.88;4937730;28;97949;-63
2024/01/01 03:13:55;;;;;;;;;;;;;;;11.85;51.80;99684.06;4950848;28;98139;-65
2024/01/01 03:16:21;;;;;;;;;;;;;;;11.85;51.79;99681.38;4934706;28;130795;-64
2024/01/01 03:18:49;;;;;;;;;;;;;;;11.84;51.58;99683.28;4939439;28;120162;-65
2024/01/01 03:21:15;;;;;;;;;;;;;;;11.83;51.90;99676.28;4920438;28;109982;-65
2024/01/01 03:23:42;;;;;;;;;;;;;;;11.84;51.75;99671.69;4924442;28;99588;-64
2024/01/01 03:26:09;;;;;;;;;;;;;;;11.84;51.67;99674.38;4922587;28;99918;-63
2024/01/01 03:28:37;;;;;;;;;;;;;;;11.85;51.75;99673.28;4937980;28;98769;-63
2024/01/01 03:31:05;;;;;;;;;;;;;;;11.84;51.59;99677.88;4921048;28;98689;-63
2024/01/01 03:33:34;;;;;;;;;;;;;;;11.84;51.88;99672.47;4937614;28;98012;-63
2024/01/01 03:36:02;;;;;;;;;;;;;;;11.85;51.80;99673.28;4918000;28;100640;-63
2024/01/01 03:38:28;;;;;;;;;;;;;;;11.84;51.83;99668.97;4932587;28;98298;-64
2024/01/01 03:40:54;;;;;;;;;;;;;;;11.84;51.86;99663.56;4919218;28;98141;-64
2024/01/01 03:43:20;;;;;;;;;;;;;;;11.83;51.57;99657.38;4937838;28;98214;-65
2024/01/01 03:45:46;;;;;;;;;;;;;;;11.83;51.82;99660.06;4923355;28;124517;-64
2024/01/01 03:48:12;;;;;;;;;;;;;;;11.82;51.74;99654.91;4921008;28;98644;-64
2024/01/01 03:50:39;;;;;;;;;;;;;;;11.82;51.79;99663.81;4922069;28;111400;-63
2024/01/01 03:53:05;;;;;;;;;;;;;;;11.82;51.79;99660.31;4921096;28;98917;-64
2024/01/01 03:55:31;;;;;;;;;;;;;;;11.80;51.69;99656.03;4937265;28;98430;-63
2024/01/01 03:57:57;;;;;;;;;;;;;;;11.80;51.81;99661.44;4918862;28;98082;-65
2024/01/01 04:00:23;;;;;;;;;;;;;;;11.80;52.12;99664.13;4937607;28;128045;-63
2024/01/01 04:02:50;;;;;;;;;;;;;;;11.79;51.79;99659.81;4920819;28;98256;-63
2024/01/01 04:05:16;;;;;;;;;;;;;;;11.79;51.81;99659.03;4937943;28;98366;-63
2024/01/01 04:07:42;;;;;;;;;;;;;;;11.79;51.68;99661.72;4937751;28;98769;-65
2024/01/01 04:10:09;;;;;;;;;;;;;;;11.78;51.62;99660.91;4926052;28;119609;-65
2024/01/01 04:12:35;;;;;;;;;;;;;;;11.78;51.68;99662.81;4957895;28;98029;-65
2024/01/01 04:15:03;;;;;;;;;;;;;;;11.78;51.59;99652.00;4925081;28;100208;-64
2024/01/01 04:17:30;;;;;;;;;;;;;;;11.77;51.74;99648.50;4941409;28;99573;-65
2024/01/01 04:19:56;;;;;;;;;;;;;;;11.76;51.81;99654.22;4923851;28;99178;-63
2024/01/01 04:22:22;;;;;;;;;;;;;;;11.76;51.69;99652.31;4937618;28;99224;-63
2024/01/01 04:24:48;;;;;;;;;;;;;;;11.75;51.61;99650.72;4923548;28;98029;-63
2024/01/01 04:27:14;;;;;;;;;;;;;;;11.74;51.66;99654.50;4943122;28;98234;-64
2024/01/01 04:29:40;;;;;;;;;;;;;;;11.74;51.71;99654.50;4940427;28;98272;-65
2024/01/01 04:32:07;;;;;;;;;;;;;;;11.74;51.73;99653.69;4921060;28;117233;-64
2024/01/01 04:34:33;;;;;;;;;;;;;;;11.74;51.78;99659.09;4921346;28;98255;-63
2024/01/01 04:36:59;;;;;;;;;;;;;;;11.73;51.81;99652.09;4938880;28;98921;-64
2024/01/01 04:39:26;;;;;;;;;;;;;;;11.73;51.72;99657.50;4955228;28;97909;-63
2024/01/01 04:41:52;;;;;;;;;;;;;;;11.72;51.68;99653.19;4943450;28;98405;-64
2024/01/01 04:44:19;;;;;;;;;;;;;;;11.72;51.80;99654.00;4936856;28;119107;-63
2024/01/01 04:46:45;;;;;;;;;;;;;;;11.72;51.64;99650.50;4954870;28;98697;-63
2024/01/01 04:49:11;;;;;;;;;;;;;;;11.70;51.68;99650.78;4939098;28;98579;-64
2024/01/01 04:51:37;;;;;;;;;;;;;;;11.70;51.70;99648.06;4942115;28;98673;-65
2024/01/01 04:54:04;;;;;;;;;;;;;;;11.70;51.86;99652.69;4922485;28;127977;-64
2024/01/01 04:56:30;;;;;;;;;;;;;;;11.70;51.69;99658.88;4945316;28;99562;-65
2024/01/01 04:58:57;;;;;;;;;;;;;;;11.70;51.77;99661.56;4940521;28;99025;-65
2024/01/01 05:01:23;;;;;;;;;;;;;;;11.70;51.74;99649.97;4936336;28;99537;-63
2024/01/01 05:03:49;;;;;;;;;;;;;;;11.69;51.67;99653.78;4939497;28;108277;-65
2024/01/01 05:06:15;;;;;;;;;;;;;;;11.68;51.82;99652.97;4958412;28;130508;-64
2024/01/01 05:08:41;;;;;;;;;;;;;;;11.69;51.74;99649.19;4936518;28;98442;-63
2024/01/01 05:11:08;;;;;;;;;;;;;;;11.69;51.72;99645.69;4939865;28;98373;-63
2024/01/01 05:13:34;;;;;;;;;;;;;;;11.71;51.73;99646.16;4937712;28;98255;-65
2024/01/01 05:16:00;;;;;;;;;;;;;;;11.70;51.69;99639.97;4937200;28;98334;-65
2024/01/01 05:18:27;;;;;;;;;;;;;;;11.71;51.74;99649.69;4934310;28;125479;-65
2024/01/01 05:20:53;;;;;;;;;;;;;;;11.70;51.59;99650.78;4922411;28;98558;-64
2024/01/01 05:23:19;;;;;;;;;;;;;;;11.70;51.68;99641.88;4923833;28;99543;-63
2024/01/01 05:25:45;;;;;;;;;;;;;;;11.71;51.66;99638.06;4957685;28;99496;-63
2024/01/01 05:28:11;;;;;;;;;;;;;;;11.70;51.67;99644.56;4941775;28;99482;-66
2024/01/01 05:30:37;;;;;;;;;;;;;;;11.67;51.71;99634.34;4921111;28;110046;-65
2024/01/01 05:33:03;;;;;;;;;;;;;;;11.68;51.75;99647.59;4941565;28;98131;-65
2024/01/01 05:35:31;;;;;;;;;;;;;;;11.67;51.86;99648.69;4938644;28;111827;-64
2024/01/01 05:37:57;;;;;;;;;;;;;;;11.67;51.77;99651.38;4926764;28;98227;-65
2024/01/01 05:40:23;;;;;;;;;;;;;;;11.67;51.65;99648.69;4923647;28;98726;-65
2024/01/01 05:42:49;;;;;;;;;;;;;;;11.67;51.91;99651.38;4924047;28;110943;-65
2024/01/01 05:45:15;;;;;;;;;;;;;;;11.68;51.75;99641.38;4936510;28;122593;-65
2024/01/01 05:47:41;;;;;;;;;;;;;;;11.66;51.70;99641.66;4920726;28;117230;-63
2024/01/01 05:50:07;;;;;;;;;;;;;;;11.69;51.69;99645.69;4922872;28;98082;-65
2024/01/01 05:52:33;;;;;;;;;;;;;;;11.68;51.68;99647.59;4924448;28;99828;-63
2024/01/01 05:54:59;;;;;;;;;;;;;;;11.69;51.72;99649.19;4940125;28;98850;-65
2024/01/01 05:57:25;;;;;;;;;;;;;;;11.70;51.78;99645.38;4936249;28;114277;-63
2024/01/01 05:59:52;;;;;;;;;;;;;;;11.70;51.86;99650.78;4938027;28;98205;-63
2024/01/01 06:02:17;;;;;;;;;;;;;;;11.71;51.77;99652.41;4936791;28;98851;-64
2024/01/01 06:04:44;;;;;;;;;;;;;;;11.72;51.75;99661.31;4934155;28;98518;-63
2024/01/01 06:07:09;;;;;;;;;;;;;;;11.71;51.67;99665.91;4938568;28;98266;-64
2024/01/01 06:09:36;;;;;;;;;;;;;;;11.70;51.70;99661.56;4919585;28;102542;-63
2024/01/01 06:12:03;;;;;;;;;;;;;;;11.71;51.52;99655.09;4923306;28;97948;-63
2024/01/01 06:14:29;;;;;;;;;;;;;;;11.70;51.70;99658.06;4920554;28;99140;-65
2024/01/01 06:16:57;;;;;;;;;;;;;;;11.72;51.74;99662.09;4938703;28;108903;-64
2024/01/01 06:19:23;;;;;;;;;;;;;;;11.72;51.73;99656.69;4925110;28;98750;-65
2024/01/01 06:21:49;;;;;;;;;;;;;;;11.73;51.59;99655.59;4941421;28;128500;-65
2024/01/01 06:24:15;;;;;;;;;;;;;;;11.74;51.70;99653.69;4956551;28;98256;-63
2024/01/01 06:26:41;;;;;;;;;;;;;;;11.73;51.71;99649.41;4922095;28;99184;-63
2024/01/01 06:29:07;;;;;;;;;;;;;;;11.73;51.66;99652.91;4954590;28;98220;-65
2024/01/01 06:31:34;;;;;;;;;;;;;;;11.74;51.75;99651.00;4936450;28;100388;-63
2024/01/01 06:34:02;;;;;;;;;;;;;;;11.74;51.76;99656.38;4920725;28;98088;-63
2024/01/01 06:36:28;;;;;;;;;;;;;;;11.74;51.67;99651.00;4935287;28;98723;-65
2024/01/01 06:38:54;;;;;;;;;;;;;;;11.75;51.62;99660.69;4922105;28;99673;-63
2024/01/01 06:41:20;;;;;;;;;;;;;;;11.75;51.62;99663.38;4924934;28;98098;-65
2024/01/01 06:43:46;;;;;;;;;;;;;;;11.76;51.68;99667.72;4936893;28;128225;-65
2024/01/01 06:46:12;;;;;;;;;;;;;;;11.76;51.57;99662.31;4921940;28;98235;-63
2024/01/01 06:48:38;;;;;;;;;;;;;;;11.76;51.58;99670.41;4939478;28;98273;-64
2024/01/01 06:51:10;;;;;;;;;;;;;;;11.75;51.78;99677.72;4937689;28;99528;-65
2024/01/01 06:53:36;;;;;;;;;;;;;;;11.76;51.77;99681.22;4939883;28;97865;-64
2024/01/01 06:56:02;;;;;;;;;;;;;;;11.74;51.74;99678.78;4921421;28;98304;-63
2024/01/01 06:58:28;;;;;;;;;;;;;;;11.75;51.98;99679.59;4923340;28;98379;-65
2024/01/01 07:00:54;;;;;;;;;;;;;;;11.77;51.59;99680.91;4949485;28;103635;-63
2024/01/01 07:03:20;;;;;;;;;;;;;;;11.75;51.69;99683.13;4921629;28;129808;-64
2024/01/01 07:05:46;;;;;;;;;;;;;;;11.76;51.65;99683.91;4937344;28;98640;-63
2024/01/01 07:08:12;;;;;;;;;;;;;;;11.77;51.71;99691.72;4949196;28;98242;-66
2024/01/01 07:10:38;;;;;;;;;;;;;;;11.75;51.62;99688.50;4918160;28;99540;-65
2024/01/01 07:13:04;;;;;;;;;;;;;;;11.76;51.75;99687.41;4935512;28;99494;-65
2024/01/01 07:15:30;;;;;;;;;;;;;;;11.77;51.94;99699.81;4925270;28;97801;-63
2024/01/01 07:17:59;;;;;;;;;;;;;;;11.78;51.78;99709.50;4939908;28;98564;-63
2024/01/01 07:20:25;;;;;;;;;;;;;;;11.79;51.75;99704.94;4938874;28;98508;-63
2024/01/01 07:22:52;;;;;;;;;;;;;;;11.80;51.63;99714.63;4920984;28;97981;-63
2024/01/01 07:25:18;;;;;;;;;;;;;;;11.82;51.54;99719.72;4942683;28;99066;-65
2024/01/01 07:27:44;;;;;;;;;;;;;;;11.84;51.50;99712.19;4927763;28;99964;-63
2024/01/01 07:30:11;;;;;;;;;;;;;;;11.84;51.63;99715.69;4918432;28;98649;-63
2024/01/01 07:32:37;;;;;;;;;;;;;;;11.86;51.56;99712.66;4935876;28;99937;-65
2024/01/01 07:35:03;;;;;;;;;;;;;;;11.87;51.49;99717.78;4938266;28;120040;-63
2024/01/01 07:37:29;;;;;;;;;;;;;;;11.91;51.60;99713.41;4937177;28;98789;-63
2024/01/01 07:39:55;;;;;;;;;;;;;;;11.95;51.60;99716.34;4920620;28;98324;-65
2024/01/01 07:42:21;;;;;;;;;;;;;;;11.98;51.60;99713.00;4920335;28;118828;-67
2024/01/01 07:44:46;;;;;;;;;;;;;;;12.00;51.54;99714.34;4939155;28;98303;-65
2024/01/01 07:47:12;;;;;;;;;;;;;;;12.06;51.60;99720.44;4938814;28;98917;-65
2024/01/01 07:49:39;;;;;;;;;;;;;;;12.15;51.55;99721.41;4941893;28;98686;-65
2024/01/01 07:52:05;;;;;;;;;;;;;;;12.24;51.33;99725.03;4942021;28;98403;-65
2024/01/01 07:54:31;;;;;;;;;;;;;;;12.31;51.16;99727.34;4942618;28;118329;-63
2024/01/01 07:56:57;;;;;;;;;;;;;;;12.41;51.12;99729.06;4924419;28;98524;-63
2024/01/01 07:59:24;;;;;;;;;;;;;;;12.49;50.98;99736.47;4921798;28;98326;-65
2024/01/01 08:01:49;;;;;;;;;;;;;;;12.62;50.96;99734.94;4934794;28;98432;-65
2024/01/01 08:04:15;;;;;;;;;;;;;;;12.69;50.83;99730.72;4921239;28;129862;-65
2024/01/01 08:06:42;;;;;;;;;;;;;;;12.71;51.02;99736.63;4922677;28;113384;-63
2024/01/01 08:09:10;;;;;;;;;;;;;;;12.74;51.06;99737.94;4938782;28;98383;-63
2024/01/01 08:11:37;;;;;;;;;;;;;;;12.75;51.10;99742.25;4936631;28;98601;-63
2024/01/01 08:14:02;;;;;;;;;;;;;;;12.76;50.78;99741.94;4925991;28;98174;-64
2024/01/01 08:16:29;;;;;;;;;;;;;;;12.83;51.14;99736.13;4934353;28;117785;-64
2024/01/01 08:18:56;;;;;;;;;;;;;;;12.85;51.20;99738.53;4921515;28;100206;-63
2024/01/01 08:21:22;;;;;;;;;;;;;;;12.85;51.14;99746.66;4950517;28;98206;-64
2024/01/01 08:23:48;;;;;;;;;;;;;;;12.86;51.16;99746.38;4936535;28;98255;-64
2024/01/01 08:26:14;;;;;;;;;;;;;;;12.93;51.17;99748.66;4935785;28;98811;-65
2024/01/01 08:28:41;;;;;;;;;;;;;;;13.06;50.81;99747.06;4936211;28;100357;-63
2024/01/01 08:31:08;;;;;;;;;;;;;;;13.23;50.48;99748.09;4954322;28;98515;-63
2024/01/01 08:33:34;;;;;;;;;;;;;;;13.46;50.48;99750.88;4916701;28;99370;-65
2024/01/01 08:36:00;;;;;;;;;;;;;;;14.01;50.20;99742.59;4916614;28;105844;-64
2024/01/01 08:38:26;;;;;;;;;;;;;;;14.58;49.36;99740.13;4919284;28;98377;-65
2024/01/01 08:40:52;;;;;;;;;;;;;;;14.93;49.52;99732.13;4937311;28;98627;-65
2024/01/01 08:43:18;;;;;;;;;;;;;;;15.12;49.60;99737.31;4938779;28;99631;-64
2024/01/01 08:45:44;;;;;;;;;;;;;;;14.91;50.27;99737.09;4952961;28;97932;-63
2024/01/01 08:48:10;;;;;;;;;;;;;;;14.77;50.22;99739.09;4917833;28;98209;-65
2024/01/01 08:50:37;;;;;;;;;;;;;;;14.65;50.30;99737.75;4952625;28;128169;-63
2024/01/01 08:53:05;;;;;;;;;;;;;;;14.55;50.47;99742.66;4934587;28;98308;-65
2024/01/01 08:55:31;;;;;;;;;;;;;;;14.47;50.54;99747.69;4935068;28;98395;-65
2024/01/01 08:57:57;;;;;;;;;;;;;;;14.44;50.63;99752.94;4933879;28;100157;-65
2024/01/01 09:00:23;;;;;;;;;;;;;;;14.43;50.50;99751.34;4935107;28;99650;-63
2024/01/01 09:02:49;;;;;;;;;;;;;;;14.51;50.65;99752.53;4920285;28;98099;-63
2024/01/01 09:05:16;;;;;;;;;;;;;;;14.63;50.54;99745.41;4935769;28;118773;-65
2024/01/01 09:07:41;;;;;;;;;;;;;;;14.64;50.37;99743.50;4933661;28;98777;-65
2024/01/01 09:10:08;;;;;;;;;;;;;;;14.59;50.73;99749.88;4918704;28;128574;-63
2024/01/01 09:12:34;;;;;;;;;;;;;;;14.58;50.58;99759.13;4919329;28;99414;-65
2024/01/01 09:15:00;;;;;;;;;;;;;;;14.64;50.42;99752.44;4916027;28;116754;-64
2024/01/01 09:17:26;;;;;;;;;;;;;;;14.78;50.20;99757.78;4918038;28;98230;-64
2024/01/01 09:19:53;;;;;;;;;;;;;;;15.02;50.32;99753.91;4934273;28;106234;-64
2024/01/01 09:22:19;;;;;;;;;;;;;;;14.97;50.43;99749.38;4935121;28;98901;-65
2024/01/01 09:24:45;;;;;;;;;;;;;;;14.88;50.59;99754.78;4934492;28;118444;-65
2024/01/01 09:27:11;;;;;;;;;;;;;;;14.82;50.62;99758.75;4921020;28;109309;-64
2024/01/01 09:29:37;;;;;;;;;;;;;;;14.72;50.67;99754.38;4937976;28;98582;-65
2024/01/01 09:32:05;;;;;;;;;;;;;;;14.66;50.73;99765.72;4919599;28;98299;-63
2024/01/01 09:34:31;;;;;;;;;;;;;;;14.58;50.79;99761.00;4916668;28;98976;-65
2024/01/01 09:36:59;;;;;;;;;;;;;;;14.49;51.01;99769.09;4948936;28;98556;-65
2024/01/01 09:39:24;;;;;;;;;;;;;;;14.42;51.06;99769.53;4920231;28;99496;-65
2024/01/01 09:41:52;;;;;;;;;;;;;;;14.36;51.14;99759.09;4918858;28;120343;-65
2024/01/01 09:44:18;;;;;;;;;;;;;;;14.29;51.13;99764.94;4921021;28;99011;-65
2024/01/01 09:46:46;;;;;;;;;;;;;;;14.22;51.22;99762.66;4936273;28;98670;-63
2024/01/01 09:49:12;;;;;;;;;;;;;;;14.16;51.26;99760.41;4921290;28;98333;-65
2024/01/01 09:51:39;;;;;;;;;;;;;;;14.08;51.28;99758.44;4934597;28;101172;-63
2024/01/01 09:54:05;;;;;;;;;;;;;;;14.00;51.32;99752.63;4920526;28;98519;-65
2024/01/01 09:56:31;;;;;;;;;;;;;;;13.95;51.20;99755.47;4932220;28;98307;-63
2024/01/01 09:58:57;;;;;;;;;;;;;;;13.89;51.17;99751.28;4933723;28;98146;-65
2024/01/01 10:01:23;;;;;;;;;;;;;;;13.86;51.27;99742.94;4918961;28;97978;-65
2024/01/01 10:04:02;;;;;;;;;;;;;;;13.85;51.14;99750.28;4935469;28;98324;-65
2024/01/01 10:06:33;;;;;;;;;;;;;;;13.86;51.35;99741.03;4918055;28;98467;-63
2024/01/01 10:09:11;;;;;;;;;;;;;;;13.87;51.23;99748.06;4918972;28;98222;-65
2024/01/01 10:11:42;;;;;;;;;;;;;;;13.88;51.11;99748.88;4947673;28;98715;-65
2024/01/01 10:14:08;;;;;;;;;;;;;;;13.89;51.34;99745.06;4931628;28;98279;-65
2024/01/01 10:16:34;;;;;;;;;;;;;;;13.90;51.05;99746.66;4919647;28;98326;-65
2024/01/01 10:19:04;;;;;;;;;;;;;;;13.92;51.42;99744.44;4918432;28;98078;-63
2024/01/01 10:21:37;;;;;;;;;;;;;;;13.96;50.91;99748.16;4934131;28;98465;-65
2024/01/01 10:24:16;;;;;;;;;;;;;;;14.02;50.91;99746.09;4922605;28;98720;-63
2024/01/01 10:26:44;;;;;;;;;;;;;;;14.03;51.15;99743.09;4934523;28;98577;-65
2024/01/01 10:29:12;;;;;;;;;;;;;;;14.09;50.89;99746.47;4918914;28;99714;-64
2024/01/01 10:31:44;;;;;;;;;;;;;;;14.10;51.07;99743.44;4920841;28;99559;-63
2024/01/01 10:34:10;;;;;;;;;;;;;;;14.10;51.23;99746.16;4918218;28;98439;-63
2024/01/01 10:36:36;;;;;;;;;;;;;;;14.11;51.03;99742.38;4932482;28;98110;-65
2024/01/01 10:39:05;;;;;;;;;;;;;;;14.11;50.83;99749.66;4918459;28;98391;-64
2024/01/01 10:41:31;;;;;;;;;;;;;;;14.11;50.99;99739.66;4929759;28;98784;-65
2024/01/01 10:43:57;;;;;;;;;;;;;;;14.14;50.91;99749.06;4918311;28;98216;-63
2024/01/01 10:46:24;;;;;;;;;;;;;;;14.16;50.91;99741.44;4919737;28;100593;-63
2024/01/01 10:48:50;;;;;;;;;;;;;;;14.15;51.14;99748.78;4930312;28;98359;-63
2024/01/01 10:51:50;;;;;;;;;;;;;;;14.16;51.14;99744.16;4917212;28;98348;-65
2024/01/01 10:55:05;;;;;;;;;;;;;;;14.13;51.02;99742.84;4948305;28;98001;-63
2024/01/01 10:57:59;;;;;;;;;;;;;;;14.09;51.29;99746.47;4931612;28;98605;-64
2024/01/01 11:00:51;;;;;;;;;;;;;;;14.05;51.03;99740.88;4950075;28;98200;-63
2024/01/01 11:03:17;;;;;;;;;;;;;;;14.07;51.37;99741.38;4933243;28;99889;-65
2024/01/01 11:05:44;;;;;;;;;;;;;;;14.07;51.38;99735.97;4928597;28;117770;-65
2024/01/01 11:08:10;;;;;;;;;;;;;;;14.14;51.01;99739.00;4933499;28;98277;-65
2024/01/01 11:10:44;;;;;;;;;;;;;;;14.18;51.07;99741.91;4915656;28;100026;-63
2024/01/01 11:13:25;;;;;;;;;;;;;;;14.22;51.07;99737.47;4953528;28;98393;-65
2024/01/01 11:15:58;;;;;;;;;;;;;;;14.26;51.09;99741.16;4935283;28;98265;-65
2024/01/01 11:18:30;;;;;;;;;;;;;;;14.32;51.06;99741.84;4930023;28;99300;-65
2024/01/01 11:20:56;;;;;;;;;;;;;;;14.35;51.04;99730.41;4918063;28;99100;-65
2024/01/01 11:23:44;;;;;;;;;;;;;;;14.37;51.34;99733.59;4927813;28;99108;-65
2024/01/01 11:26:23;;;;;;;;;;;;;;;14.39;51.35;99732.19;4931443;28;98326;-64
2024/01/01 11:28:50;;;;;;;;;;;;;;;14.41;51.31;99732.66;4946732;28;98526;-64
2024/01/01 11:31:16;;;;;;;;;;;;;;;14.49;50.96;99731.13;4932736;28;98260;-64
2024/01/01 11:33:43;;;;;;;;;;;;;;;14.54;51.36;99739.16;4932160;28;99650;-63
2024/01/01 11:36:10;;;;;;;;;;;;;;;14.57;51.40;99738.50;4920007;28;98537;-65
2024/01/01 11:38:36;;;;;;;;;;;;;;;14.57;51.40;99733.09;4921094;28;98871;-64
2024/01/01 11:41:03;;;;;;;;;;;;;;;14.58;51.36;99736.59;4931104;28;98846;-65
2024/01/01 11:43:29;;;;;;;;;;;;;;;14.63;51.31;99740.00;4931514;28;98439;-65
2024/01/01 11:45:58;;;;;;;;;;;;;;;14.67;51.04;99732.84;4917572;28;98285;-64
2024/01/01 11:48:24;;;;;;;;;;;;;;;14.66;51.35;99733.94;4919525;28;98779;-65
2024/01/01 11:50:53;;;;;;;;;;;;;;;14.66;51.26;99746.72;4930408;28;106734;-65
2024/01/01 11:53:19;;;;;;;;;;;;;;;14.61;51.41;99747.63;4916099;28;98960;-63
2024/01/01 11:55:45;;;;;;;;;;;;;;;14.57;51.18;99743.94;4917399;28;98984;-65
2024/01/01 11:58:11;;;;;;;;;;;;;;;14.51;51.60;99750.63;4936711;28;98502;-65
2024/01/01 12:00:37;;;;;;;;;;;;;;;14.43;51.73;99735.06;4918686;28;103797;-65
2024/01/01 12:03:04;;;;;;;;;;;;;;;14.37;51.25;99725.44;4946695;28;129661;-65
2024/01/01 12:05:30;;;;;;;;;;;;;;;14.31;51.39;99724.78;4932651;28;98415;-65
2024/01/01 12:07:56;;;;;;;;;;;;;;;14.31;51.49;99724.78;4931916;28;99210;-65
2024/01/01 12:10:24;;;;;;;;;;;;;;;14.34;51.24;99728.78;4955323;28;121491;-65
2024/01/01 12:12:59;;;;;;;;;;;;;;;14.39;51.47;99725.97;4932364;28;98255;-65
2024/01/01 12:15:30;;;;;;;;;;;;;;;14.40;51.08;99720.22;4919082;28;98379;-65
2024/01/01 12:17:56;;;;;;;;;;;;;;;14.43;51.24;99726.94;4947998;28;105260;-65
2024/01/01 12:20:25;;;;;;;;;;;;;;;14.47;51.21;99717.88;4929442;28;123083;-65
2024/01/01 12:22:52;;;;;;;;;;;;;;;14.53;51.30;99715.03;4916364;28;99509;-65
2024/01/01 12:25:19;;;;;;;;;;;;;;;14.56;51.24;99712.50;4947183;28;100769;-64
2024/01/01 12:28:03;;;;;;;;;;;;;;;14.57;51.29;99707.88;4916200;28;98347;-63
2024/01/01 12:30:30;;;;;;;;;;;;;;;14.56;51.44;99711.72;4915679;28;99665;-64
2024/01/01 12:32:57;;;;;;;;;;;;;;;14.54;51.24;99708.50;4933412;28;98839;-65
2024/01/01 12:35:23;;;;;;;;;;;;;;;14.54;51.29;99711.22;4921696;28;98306;-65
2024/01/01 12:37:50;;;;;;;;;;;;;;;14.55;51.32;99702.00;4918121;28;98810;-63
2024/01/01 12:40:16;;;;;;;;;;;;;;;14.57;51.17;99705.97;4936162;28;98879;-65
2024/01/01 12:42:43;;;;;;;;;;;;;;;14.58;51.10;99696.75;4920359;28;97965;-63